createdAt,value
2022-08-17T00:01:52.124Z,17.13
2022-08-17T00:04:20.347Z,17.30
2022-08-17T00:06:49.171Z,18.00
2022-08-17T00:09:18.478Z,16.88
2022-08-17T00:12:42.248Z,17.73
2022-08-17T00:14:34.897Z,17.63
2022-08-17T00:17:03.842Z,17.33
2022-08-17T00:19:32.546Z,18.35
2022-08-17T00:22:31.601Z,17.80
2022-08-17T00:24:50.116Z,18.27
2022-08-17T00:27:17.306Z,17.60
2022-08-17T00:29:45.717Z,17.88
2022-08-17T00:33:11.926Z,18.63
2022-08-17T00:35:00.477Z,18.05
2022-08-17T00:37:27.623Z,18.52
2022-08-17T00:39:54.599Z,19.52
2022-08-17T00:42:21.492Z,19.00
2022-08-17T00:44:48.430Z,19.83
2022-08-17T00:47:15.219Z,18.80
2022-08-17T00:49:42.044Z,19.65
2022-08-17T00:52:16.619Z,19.67
2022-08-17T00:54:46.974Z,19.50
2022-08-17T00:57:23.391Z,19.58
2022-08-17T01:00:06.325Z,20.60
2022-08-17T01:02:42.497Z,20.25
2022-08-17T01:05:18.425Z,19.63
2022-08-17T01:07:47.806Z,19.65
2022-08-17T01:10:58.157Z,20.05
2022-08-17T01:13:04.189Z,20.55
2022-08-17T01:15:33.724Z,19.60
2022-08-17T01:18:00.617Z,21.00
2022-08-17T01:20:27.672Z,20.70
2022-08-17T01:22:54.520Z,20.27
2022-08-17T01:25:22.152Z,19.75
2022-08-17T01:27:49.747Z,18.77
2022-08-17T01:30:56.922Z,19.42
2022-08-17T01:33:04.657Z,20.10
2022-08-17T01:35:31.671Z,19.65
2022-08-17T01:37:58.496Z,19.20
2022-08-17T01:40:43.247Z,19.23
2022-08-17T01:43:21.539Z,18.40
2022-08-17T01:46:03.508Z,19.80
2022-08-17T01:48:34.217Z,20.58
2022-08-17T01:51:01.424Z,21.70
2022-08-17T01:53:37.450Z,20.75
2022-08-17T01:56:10.761Z,21.52
2022-08-17T01:58:39.849Z,22.02
2022-08-17T02:01:08.226Z,20.80
2022-08-17T02:03:36.451Z,21.92
2022-08-17T02:06:05.430Z,23.05
2022-08-17T02:08:38.690Z,21.50
2022-08-17T02:11:11.813Z,21.63
2022-08-17T02:13:39.310Z,26.23
2022-08-17T02:16:06.760Z,26.23
2022-08-17T02:18:33.988Z,26.02
2022-08-17T02:21:00.802Z,25.17
2022-08-17T02:23:30.244Z,27.52
2022-08-17T02:25:59.730Z,25.42
2022-08-17T02:28:28.389Z,24.40
2022-08-17T02:31:01.518Z,23.27
2022-08-17T02:33:42.041Z,22.25
2022-08-17T02:36:12.118Z,21.10
2022-08-17T02:38:39.861Z,20.77
2022-08-17T02:41:07.032Z,21.63
2022-08-17T02:43:34.910Z,21.63
2022-08-17T02:46:01.937Z,22.73
2022-08-17T02:48:31.611Z,25.33
2022-08-17T02:50:59.938Z,24.05
2022-08-17T02:53:27.633Z,23.30
2022-08-17T02:56:02.590Z,25.30
2022-08-17T02:58:34.314Z,28.92
2022-08-17T03:01:05.093Z,27.70
2022-08-17T03:03:31.944Z,25.80
2022-08-17T03:05:58.792Z,24.98
2022-08-17T03:08:25.685Z,24.10
2022-08-17T03:10:52.697Z,23.63
2022-08-17T03:13:20.021Z,23.50
2022-08-17T03:15:48.405Z,28.67
2022-08-17T03:18:19.078Z,30.60
2022-08-17T03:20:56.140Z,30.25
2022-08-17T03:23:25.478Z,31.15
2022-08-17T03:25:54.120Z,29.33
2022-08-17T03:28:22.456Z,35.22
2022-08-17T03:30:51.013Z,33.47
2022-08-17T03:33:18.586Z,32.60
2022-08-17T03:35:45.680Z,31.15
2022-08-17T03:38:15.357Z,27.80
2022-08-17T03:40:58.058Z,29.83
2022-08-17T03:43:29.447Z,30.58
2022-08-17T03:46:28.485Z,26.75
2022-08-17T03:49:24.673Z,29.73
2022-08-17T03:52:10.614Z,30.17
2022-08-17T03:57:23.185Z,23.80
2022-08-17T03:59:50.668Z,24.52
2022-08-17T04:02:34.439Z,36.25
2022-08-17T04:05:01.597Z,28.73
2022-08-17T04:07:30.466Z,38.40
2022-08-17T04:09:58.213Z,38.85
2022-08-17T04:12:26.422Z,33.70
2022-08-17T04:14:55.036Z,41.53
2022-08-17T04:17:25.133Z,45.83
2022-08-17T04:19:52.526Z,42.83
2022-08-17T04:22:30.601Z,42.35
2022-08-17T04:25:08.562Z,44.95
2022-08-17T04:27:36.096Z,49.40
2022-08-17T04:30:03.767Z,47.65
2022-08-17T04:33:04.099Z,46.03
2022-08-17T04:35:20.197Z,44.05
2022-08-17T04:37:47.471Z,37.67
2022-08-17T04:40:32.741Z,35.35
2022-08-17T04:43:07.729Z,28.27
2022-08-17T04:45:54.995Z,27.88
2022-08-17T04:48:29.686Z,25.92
2022-08-17T04:51:07.438Z,26.48
2022-08-17T04:53:34.330Z,27.85
2022-08-17T04:56:01.313Z,29.60
2022-08-17T04:58:28.183Z,31.30
2022-08-17T05:00:55.039Z,30.27
2022-08-17T05:03:21.871Z,32.83
2022-08-17T05:05:49.831Z,32.80
2022-08-17T05:08:19.479Z,34.03
2022-08-17T05:10:47.234Z,37.40
2022-08-17T05:13:26.242Z,40.35
2022-08-17T05:15:56.349Z,43.17
2022-08-17T05:18:24.532Z,43.20
2022-08-17T05:20:52.636Z,43.65
2022-08-17T05:23:22.144Z,44.92
2022-08-17T05:25:51.419Z,42.53
2022-08-17T05:28:23.535Z,42.20
2022-08-17T05:30:54.937Z,42.05
2022-08-17T05:33:26.349Z,42.90
2022-08-17T05:35:55.316Z,46.08
2022-08-17T05:38:24.464Z,45.88
2022-08-17T05:40:51.747Z,42.70
2022-08-17T05:43:30.904Z,43.45
2022-08-17T05:46:03.517Z,43.72
2022-08-17T05:48:43.275Z,47.15
2022-08-17T05:51:37.791Z,43.97
2022-08-17T05:54:22.869Z,42.92
2022-08-17T05:57:16.199Z,45.23
2022-08-17T06:00:04.612Z,44.85
2022-08-17T06:02:57.173Z,44.17
2022-08-17T06:05:23.984Z,44.75
2022-08-17T06:08:23.063Z,45.80
2022-08-17T06:11:28.191Z,46.42
2022-08-17T06:14:22.230Z,47.72
2022-08-17T06:16:54.635Z,46.50
2022-08-17T06:19:40.606Z,46.75
2022-08-17T06:22:10.090Z,46.25
2022-08-17T06:25:05.296Z,44.03
2022-08-17T06:27:46.187Z,45.28
2022-08-17T06:30:25.767Z,43.33
2022-08-17T06:32:55.893Z,44.33
2022-08-17T06:35:37.911Z,43.40
2022-08-17T06:38:34.995Z,40.05
2022-08-17T06:41:37.800Z,40.88
2022-08-17T06:44:57.311Z,39.30
2022-08-17T06:47:49.373Z,36.80
2022-08-17T06:50:27.945Z,34.05
2022-08-17T06:53:19.745Z,35.17
2022-08-17T06:55:52.410Z,35.92
2022-08-17T06:58:23.652Z,33.95
2022-08-17T07:01:00.968Z,32.83
2022-08-17T07:03:54.733Z,32.42
2022-08-17T07:06:25.106Z,28.73
2022-08-17T07:09:23.196Z,28.80
2022-08-17T07:11:54.400Z,30.55
2022-08-17T07:14:57.908Z,31.88
2022-08-17T07:17:36.938Z,30.98
2022-08-17T07:20:20.476Z,30.13
2022-08-17T07:23:06.683Z,28.02
2022-08-17T07:25:33.530Z,28.65
2022-08-17T07:28:05.296Z,27.70
2022-08-17T07:30:45.853Z,29.73
2022-08-17T07:33:28.103Z,24.33
2022-08-17T07:35:58.115Z,25.42
2022-08-17T07:38:30.506Z,24.95
2022-08-17T07:41:00.208Z,24.52
2022-08-17T07:43:40.251Z,23.35
2022-08-17T07:46:37.495Z,25.58
2022-08-17T07:49:04.989Z,23.75
2022-08-17T07:51:42.690Z,21.40
2022-08-17T07:54:15.693Z,20.63
2022-08-17T07:56:47.112Z,19.80
2022-08-17T07:59:24.012Z,16.27
2022-08-17T08:01:58.064Z,16.73
2022-08-17T08:04:58.879Z,14.38
2022-08-17T08:07:48.962Z,13.55
2022-08-17T08:10:27.949Z,12.50
2022-08-17T08:13:20.962Z,12.07
2022-08-17T08:15:54.232Z,12.48
2022-08-17T08:18:53.773Z,12.60
2022-08-17T08:21:29.152Z,13.23
2022-08-17T08:24:34.710Z,13.65
2022-08-17T08:27:27.666Z,12.65
2022-08-17T08:30:08.761Z,12.10
2022-08-17T08:32:38.518Z,12.20
2022-08-17T08:35:07.690Z,10.82
2022-08-17T08:37:47.934Z,11.38
2022-08-17T08:40:51.761Z,11.13
2022-08-17T08:43:26.561Z,9.95
2022-08-17T08:45:56.677Z,9.93
2022-08-17T08:48:53.639Z,8.65
2022-08-17T08:51:57.329Z,8.82
2022-08-17T08:54:58.460Z,7.63
2022-08-17T08:57:36.132Z,6.55
2022-08-17T09:00:06.411Z,6.85
2022-08-17T09:02:42.291Z,7.20
2022-08-17T09:05:16.121Z,6.47
2022-08-17T09:08:01.475Z,6.38
2022-08-17T09:10:54.043Z,6.40
2022-08-17T09:13:31.220Z,5.70
2022-08-17T09:16:06.684Z,6.68
2022-08-17T09:19:00.418Z,5.13
2022-08-17T09:21:48.533Z,5.25
2022-08-17T09:24:29.041Z,4.90
2022-08-17T09:27:18.346Z,5.07
2022-08-17T09:29:56.377Z,4.28
2022-08-17T09:32:31.189Z,4.40
2022-08-17T09:35:14.748Z,4.72
2022-08-17T09:38:03.912Z,4.63
2022-08-17T09:41:11.091Z,4.55
2022-08-17T09:43:50.644Z,4.60
2022-08-17T09:46:23.931Z,4.50
2022-08-17T09:48:57.562Z,3.97
2022-08-17T09:51:35.867Z,4.20
2022-08-17T09:54:34.969Z,3.88
2022-08-17T09:57:28.008Z,3.90
2022-08-17T09:59:57.332Z,3.97
2022-08-17T10:02:50.886Z,3.70
2022-08-17T10:05:24.036Z,3.33
2022-08-17T10:08:01.984Z,3.50
2022-08-17T10:10:56.618Z,3.55
2022-08-17T10:13:53.084Z,3.10
2022-08-17T10:16:40.765Z,3.30
2022-08-17T10:19:18.542Z,3.47
2022-08-17T10:22:14.513Z,3.75
2022-08-17T10:25:22.642Z,3.45
2022-08-17T10:28:01.364Z,3.40
2022-08-17T10:30:32.358Z,3.40
2022-08-17T10:33:06.747Z,3.40
2022-08-17T10:35:39.759Z,3.10
2022-08-17T10:38:31.536Z,3.42
2022-08-17T10:41:30.986Z,3.40
2022-08-17T10:44:38.932Z,3.00
2022-08-17T10:47:11.715Z,3.05
2022-08-17T10:49:55.913Z,3.22
2022-08-17T10:52:25.039Z,3.10
2022-08-17T10:54:58.398Z,3.40
2022-08-17T10:57:31.951Z,3.20
2022-08-17T11:00:01.466Z,3.20
2022-08-17T11:02:52.874Z,2.97
2022-08-17T11:05:44.115Z,3.30
2022-08-17T11:08:54.186Z,3.20
2022-08-17T11:11:39.875Z,3.25
2022-08-17T11:14:13.886Z,3.40
2022-08-17T11:17:13.057Z,3.65
2022-08-17T11:19:53.772Z,3.17
2022-08-17T11:22:41.275Z,3.40
2022-08-17T11:25:20.463Z,2.70
2022-08-17T11:27:53.821Z,3.00
2022-08-17T11:30:44.432Z,2.85
2022-08-17T11:33:44.652Z,2.90
2022-08-17T11:36:34.340Z,2.72
2022-08-17T11:39:25.021Z,3.08
2022-08-17T11:42:11.864Z,2.90
2022-08-17T11:44:38.720Z,2.88
2022-08-17T11:47:42.703Z,2.85
2022-08-17T11:50:52.076Z,2.33
2022-08-17T11:53:37.241Z,2.60
2022-08-17T11:56:31.726Z,2.20
2022-08-17T11:59:00.667Z,2.63
2022-08-17T12:01:29.283Z,2.75
2022-08-17T12:04:25.154Z,2.38
2022-08-17T12:09:25.093Z,2.70
2022-08-17T12:12:11.787Z,2.83
2022-08-17T12:17:40.767Z,3.08
2022-08-17T12:20:23.041Z,2.63
2022-08-17T12:23:01.102Z,2.80
2022-08-17T12:26:12.814Z,2.80
2022-08-17T12:28:45.747Z,3.42
2022-08-17T12:31:24.633Z,3.35
2022-08-17T12:33:52.181Z,3.17
2022-08-17T12:36:28.233Z,3.47
2022-08-17T12:39:14.024Z,2.88
2022-08-17T12:41:45.257Z,3.08
2022-08-17T12:44:13.733Z,3.08
2022-08-17T12:46:51.916Z,2.90
2022-08-17T12:49:32.888Z,3.78
2022-08-17T12:52:16.904Z,3.20
2022-08-17T12:55:21.316Z,2.75
2022-08-17T12:57:54.182Z,3.03
2022-08-17T13:00:29.003Z,3.17
2022-08-17T13:03:18.001Z,3.17
2022-08-17T13:05:58.865Z,3.45
2022-08-17T13:08:31.817Z,3.75
2022-08-17T13:11:09.761Z,2.97
2022-08-17T13:13:42.062Z,3.35
2022-08-17T13:16:11.820Z,2.70
2022-08-17T13:18:43.762Z,3.08
2022-08-17T13:21:33.238Z,2.35
2022-08-17T13:24:13.696Z,2.45
2022-08-17T13:26:51.530Z,2.80
2022-08-17T13:29:29.381Z,2.53
2022-08-17T13:32:16.500Z,2.90
2022-08-17T13:35:12.537Z,2.28
2022-08-17T13:37:41.026Z,2.42
2022-08-17T13:40:09.589Z,2.60
2022-08-17T13:42:52.854Z,2.28
2022-08-17T13:45:39.152Z,2.55
2022-08-17T13:48:13.888Z,2.25
2022-08-17T13:50:46.064Z,2.40
2022-08-17T13:53:33.867Z,2.33
2022-08-17T13:56:38.204Z,2.50
2022-08-17T13:59:15.729Z,2.65
2022-08-17T14:01:53.543Z,3.03
2022-08-17T14:04:31.739Z,2.80
2022-08-17T14:07:11.545Z,2.60
2022-08-17T14:09:52.466Z,3.05
2022-08-17T14:12:25.088Z,3.00
2022-08-17T14:14:53.346Z,2.70
2022-08-17T14:17:20.245Z,3.10
2022-08-17T14:19:48.053Z,2.88
2022-08-17T14:22:27.551Z,3.20
2022-08-17T14:24:58.327Z,3.00
2022-08-17T14:27:28.073Z,3.00
2022-08-17T14:29:56.398Z,2.67
2022-08-17T14:32:32.611Z,3.20
2022-08-17T14:35:00.094Z,2.83
2022-08-17T14:37:28.735Z,2.65
2022-08-17T14:39:58.649Z,2.90
2022-08-17T14:42:27.715Z,3.38
2022-08-17T14:44:55.894Z,2.58
2022-08-17T14:47:22.773Z,2.80
2022-08-17T14:49:49.611Z,2.92
2022-08-17T14:52:21.515Z,3.00
2022-08-17T14:54:51.242Z,2.78
2022-08-17T14:57:33.673Z,2.67
2022-08-17T15:00:02.166Z,2.88
2022-08-17T15:02:30.664Z,2.53
2022-08-17T15:05:05.698Z,2.70
2022-08-17T15:07:32.783Z,3.60
2022-08-17T15:10:01.339Z,3.17
2022-08-17T15:12:33.354Z,2.85
2022-08-17T15:15:05.546Z,2.92
2022-08-17T15:17:44.756Z,2.85
2022-08-17T15:20:18.979Z,3.10
2022-08-17T15:22:47.050Z,3.22
2022-08-17T15:25:14.586Z,3.35
2022-08-17T15:27:42.004Z,3.10
2022-08-17T15:30:10.187Z,3.60
2022-08-17T15:32:40.850Z,3.00
2022-08-17T15:35:11.794Z,3.03
2022-08-17T15:37:40.184Z,2.90
2022-08-17T15:40:09.080Z,2.95
2022-08-17T15:42:36.575Z,3.20
2022-08-17T15:45:10.882Z,2.38
2022-08-17T15:47:38.269Z,2.50
2022-08-17T15:50:07.534Z,2.58
2022-08-17T15:52:40.058Z,2.80
2022-08-17T15:55:10.731Z,2.90
2022-08-17T15:57:37.612Z,3.03
2022-08-17T16:00:06.215Z,2.67
2022-08-17T16:03:45.966Z,2.95
2022-08-17T16:05:31.200Z,2.70
2022-08-17T16:07:59.729Z,2.67
2022-08-17T16:10:35.162Z,2.70
2022-08-17T16:13:04.072Z,2.35
2022-08-17T16:15:33.682Z,2.40
2022-08-17T16:18:00.565Z,2.85
2022-08-17T16:20:27.716Z,3.10
2022-08-17T16:22:55.217Z,2.85
2022-08-17T16:25:52.144Z,2.63
2022-08-17T16:28:16.919Z,2.75
2022-08-17T16:30:44.282Z,2.78
2022-08-17T16:33:11.846Z,2.97
2022-08-17T16:35:39.608Z,2.70
2022-08-17T16:38:07.258Z,2.67
2022-08-17T16:40:35.756Z,3.00
2022-08-17T16:43:03.975Z,3.30
2022-08-17T16:45:36.563Z,2.83
2022-08-17T16:48:04.441Z,3.00
2022-08-17T16:50:32.538Z,2.60
2022-08-17T16:53:06.730Z,2.83
2022-08-17T16:55:35.759Z,2.33
2022-08-17T16:58:08.782Z,2.40
2022-08-17T17:00:36.684Z,2.70
2022-08-17T17:03:19.074Z,2.53
2022-08-17T17:06:02.801Z,3.00
2022-08-17T17:08:46.795Z,2.65
2022-08-17T17:11:21.487Z,2.53
2022-08-17T17:14:01.621Z,2.90
2022-08-17T17:17:12.966Z,2.40
2022-08-17T17:19:46.835Z,2.58
2022-08-17T17:22:24.445Z,2.97
2022-08-17T17:25:30.254Z,3.00
2022-08-17T17:28:15.906Z,2.63
2022-08-17T17:30:51.402Z,2.60
2022-08-17T17:33:22.511Z,3.13
2022-08-17T17:36:00.047Z,2.60
2022-08-17T17:38:34.299Z,2.40
2022-08-17T17:41:12.033Z,2.78
2022-08-17T17:43:40.879Z,2.85
2022-08-17T17:46:28.214Z,2.63
2022-08-17T17:48:56.762Z,2.97
2022-08-17T17:52:06.719Z,2.67
2022-08-17T17:56:55.469Z,2.90
2022-08-17T17:59:32.844Z,2.75
2022-08-17T18:02:51.652Z,2.70
2022-08-17T18:05:25.231Z,2.80
2022-08-17T18:08:01.501Z,3.05
2022-08-17T18:10:41.550Z,3.28
2022-08-17T18:13:17.695Z,3.13
2022-08-17T18:15:54.016Z,3.13
2022-08-17T18:18:38.088Z,2.95
2022-08-17T18:21:19.304Z,3.03
2022-08-17T18:23:53.811Z,3.35
2022-08-17T18:26:32.795Z,3.00
2022-08-17T18:29:01.368Z,2.95
2022-08-17T18:31:28.142Z,2.95
2022-08-17T18:34:36.092Z,3.08
2022-08-17T18:37:05.869Z,3.17
2022-08-17T18:39:32.890Z,3.15
2022-08-17T18:42:03.019Z,3.42
2022-08-17T18:44:35.735Z,3.20
2022-08-17T18:47:08.386Z,3.40
2022-08-17T18:49:35.703Z,3.55
2022-08-17T18:52:27.766Z,3.63
2022-08-17T18:55:20.936Z,3.50
2022-08-17T18:57:58.809Z,3.47
2022-08-17T19:00:41.393Z,3.10
2022-08-17T19:03:19.963Z,3.22
2022-08-17T19:05:57.287Z,3.63
2022-08-17T19:08:30.016Z,3.30
2022-08-17T19:11:02.463Z,3.35
2022-08-17T19:13:40.947Z,3.47
2022-08-17T19:16:23.837Z,3.58
2022-08-17T19:19:15.066Z,3.40
2022-08-17T19:21:55.463Z,3.28
2022-08-17T19:24:24.642Z,3.80
2022-08-17T19:26:59.171Z,3.55
2022-08-17T19:29:39.546Z,3.95
2022-08-17T19:32:11.147Z,3.20
2022-08-17T19:34:39.337Z,3.45
2022-08-17T19:37:16.154Z,3.58
2022-08-17T19:39:49.011Z,3.20
2022-08-17T19:42:18.796Z,3.13
2022-08-17T19:45:08.049Z,3.35
2022-08-17T19:48:26.264Z,3.45
2022-08-17T19:51:24.434Z,3.55
2022-08-17T19:54:07.274Z,3.53
2022-08-17T19:57:02.012Z,4.28
2022-08-17T19:59:58.534Z,5.13
2022-08-17T20:02:34.247Z,5.75
2022-08-17T20:05:07.122Z,5.60
2022-08-17T20:08:03.804Z,6.03
2022-08-17T20:10:37.127Z,6.22
2022-08-17T20:13:11.301Z,7.38
2022-08-17T20:15:42.079Z,8.07
2022-08-17T20:18:27.515Z,9.38
2022-08-17T20:21:37.071Z,8.98
2022-08-17T20:24:28.278Z,10.98
2022-08-17T20:27:09.798Z,11.35
2022-08-17T20:30:07.951Z,11.88
2022-08-17T20:32:53.061Z,12.25
2022-08-17T20:35:35.420Z,12.77
2022-08-17T20:38:33.354Z,12.43
2022-08-17T20:41:03.847Z,13.57
2022-08-17T20:43:33.756Z,14.73
2022-08-17T20:46:19.605Z,14.10
2022-08-17T20:48:50.673Z,13.35
2022-08-17T20:51:19.401Z,13.63
2022-08-17T20:53:55.233Z,14.27
2022-08-17T20:56:43.675Z,14.20
2022-08-17T20:59:24.044Z,13.25
2022-08-17T21:02:19.363Z,13.98
2022-08-17T21:05:00.816Z,14.10
2022-08-17T21:07:43.458Z,13.15
2022-08-17T21:10:29.640Z,13.52
2022-08-17T21:13:10.117Z,13.65
2022-08-17T21:15:42.736Z,14.23
2022-08-17T21:18:15.496Z,14.32
2022-08-17T21:21:25.969Z,15.18
2022-08-17T21:24:30.432Z,15.80
2022-08-17T21:27:06.062Z,16.00
2022-08-17T21:29:34.196Z,17.02
2022-08-17T21:32:07.542Z,18.30
2022-08-17T21:35:07.499Z,17.38
2022-08-17T21:37:44.871Z,18.13
2022-08-17T21:40:17.941Z,19.15
2022-08-17T21:42:47.340Z,19.30
2022-08-17T21:45:22.607Z,19.63
2022-08-17T21:50:24.467Z,19.80
2022-08-17T21:53:02.317Z,19.13
2022-08-17T21:55:32.445Z,19.25
2022-08-17T21:58:14.780Z,19.83
2022-08-17T22:00:46.009Z,18.77
2022-08-17T22:03:25.889Z,19.83
2022-08-17T22:05:52.688Z,20.70
2022-08-17T22:08:23.960Z,20.30
2022-08-17T22:11:01.137Z,21.52
2022-08-17T22:13:29.786Z,21.63
2022-08-17T22:16:29.518Z,20.77
2022-08-17T22:18:58.851Z,19.65
2022-08-17T22:21:26.360Z,19.83
2022-08-17T22:24:06.489Z,19.08
2022-08-17T22:26:59.112Z,20.55
2022-08-17T22:29:47.852Z,20.38
2022-08-17T22:32:50.373Z,18.80
2022-08-17T22:35:35.050Z,18.50
2022-08-17T22:38:19.805Z,18.52
2022-08-17T22:40:49.821Z,18.05
2022-08-17T22:43:21.299Z,18.75
2022-08-17T22:45:57.405Z,18.75
2022-08-17T22:48:27.940Z,18.60
2022-08-17T22:51:17.511Z,17.10
2022-08-17T22:54:14.950Z,18.30
2022-08-17T22:57:12.594Z,17.88
2022-08-17T22:59:51.438Z,17.95
2022-08-17T23:02:30.725Z,18.00
2022-08-17T23:05:23.931Z,20.30
2022-08-17T23:07:52.630Z,20.83
2022-08-17T23:10:19.649Z,20.40
2022-08-17T23:12:46.672Z,22.88
2022-08-17T23:15:16.520Z,24.73
2022-08-17T23:17:45.319Z,24.65
2022-08-17T23:20:14.939Z,24.80
2022-08-17T23:22:52.372Z,24.25
2022-08-17T23:25:31.447Z,24.30
2022-08-17T23:28:01.667Z,21.98
2022-08-17T23:30:31.156Z,23.52
2022-08-17T23:33:06.236Z,23.83
2022-08-17T23:35:40.563Z,25.60
2022-08-17T23:38:12.932Z,26.58
2022-08-17T23:40:40.733Z,25.98
2022-08-17T23:43:25.767Z,26.52
2022-08-17T23:45:57.505Z,27.92
2022-08-17T23:48:35.479Z,29.70
2022-08-17T23:51:15.340Z,29.08
2022-08-17T23:53:47.310Z,29.23
2022-08-17T23:56:14.727Z,29.50
2022-08-17T23:58:42.814Z,28.98
